Terminal Aerodrome Forecast
Issued by NWS

Home | Current Version | Previous Version | Graphics & Text | Print | Product List | Glossary On
Versions: 1 2 3 4 5 6 7 8 9 10 11 12 13 14 15 16
884
FTUS43 KTOP 270520
TAFFOE
TAF
KFOE 270520Z 2706/2806 10003KT P6SM SCT040 SCT250
     FM271500 13009KT P6SM SCT020 BKN035
     FM271700 14009KT P6SM VCTS SCT025 BKN035CB
     FM272300 36009KT P6SM BKN035
     FM280200 33011KT P6SM BKN023=

USA.gov is the U.S. government's official web portal to all federal, state and local government web resources and services.